This is the latest recevied weather packets stored in our database for station/object HS5XHC-1. If no packets are shown the sender has not sent any weather packets the latest 10 day(s).
| Time | Temp. | Humidity | Pressure | Rain* | Wind** | Luminosity | Snow |
|---|---|---|---|---|---|---|---|
| 1777579148 | 27.22° C | 57% | 967 hPa | - | - | 0 W/m² | - |
| 1777578524 | 27.78° C | 56% | 967 hPa | - | - | 0 W/m² | - |
| 1777577900 | 27.78° C | 56% | 967 hPa | - | - | 0 W/m² | - |
| 1777577276 | 27.78° C | 56% | 967 hPa | - | - | 0 W/m² | - |
| 1777576652 | 27.22° C | 57% | 967 hPa | - | - | 0 W/m² | - |
| 1777576028 | 27.78° C | 56% | 967 hPa | - | - | 0 W/m² | - |
| 1777575404 | 27.78° C | 55% | 967 hPa | - | - | 0 W/m² | - |
| 1777574780 | 27.78° C | 56% | 968 hPa | - | - | 0 W/m² | - |
| 1777574155 | 27.22° C | 58% | 968 hPa | - | - | 0 W/m² | - |
| 1777573531 | 27.22° C | 56% | 968 hPa | - | - | 0 W/m² | - |
| 1777572907 | 27.22° C | 57% | 968 hPa | - | - | 0 W/m² | - |
| 1777572283 | 27.22° C | 57% | 968 hPa | - | - | 0 W/m² | - |
| 1777571659 | 26.67° C | 58% | 968 hPa | - | - | 0 W/m² | - |
| 1777571035 | 27.78° C | 55% | 968 hPa | - | - | 0 W/m² | - |
| 1777570411 | 27.78° C | 54% | 968 hPa | - | - | 0 W/m² | - |
| 1777569787 | 27.78° C | 54% | 968 hPa | - | - | 0 W/m² | - |
| 1777569163 | 27.78° C | 54% | 969 hPa | - | - | 0 W/m² | - |
| 1777568539 | 27.78° C | 55% | 969 hPa | - | - | 0 W/m² | - |
| 1777567915 | 27.78° C | 53% | 969 hPa | - | - | 0 W/m² | - |
| 1777567291 | 27.78° C | 54% | 969 hPa | - | - | 0 W/m² | - |
| 1777566667 | 26.67° C | 57% | 969 hPa | - | - | 0 W/m² | - |
| 1777566043 | 27.78° C | 55% | 969 hPa | - | - | 0 W/m² | - |
| 1777565419 | 28.33° C | 53% | 969 hPa | - | - | 0 W/m² | - |
| 1777564795 | 28.33° C | 54% | 968 hPa | - | - | 0 W/m² | - |
| 1777564171 | 28.33° C | 54% | 968 hPa | - | - | 0 W/m² | - |
* Rain since midnight (hover to see other rain measurements)
** Current wind speed in m/s (hover to see current wind gust speed)